createdAt,value
2018-12-05T00:00:30.643Z,10.87
2018-12-05T00:02:56.681Z,10.80
2018-12-05T00:05:22.760Z,10.80
2018-12-05T00:07:48.830Z,10.82
2018-12-05T00:10:14.910Z,10.91
2018-12-05T00:12:40.958Z,10.97
2018-12-05T00:15:07.011Z,10.92
2018-12-05T00:17:33.695Z,10.85
2018-12-05T00:19:59.983Z,10.92
2018-12-05T00:22:26.012Z,10.84
2018-12-05T00:24:52.056Z,10.74
2018-12-05T00:27:18.098Z,10.93
2018-12-05T00:29:44.141Z,10.82
2018-12-05T00:32:10.195Z,10.82
2018-12-05T00:34:36.244Z,10.87
2018-12-05T00:37:02.284Z,10.72
2018-12-05T00:39:28.328Z,10.74
2018-12-05T00:41:54.399Z,10.79
2018-12-05T00:44:21.175Z,10.70
2018-12-05T00:46:47.293Z,10.74
2018-12-05T00:49:13.401Z,10.56
2018-12-05T00:51:39.554Z,10.81
2018-12-05T00:54:05.651Z,10.74
2018-12-05T00:56:31.707Z,10.69
2018-12-05T00:58:58.128Z,10.58
2018-12-05T01:01:24.180Z,10.66
2018-12-05T01:03:50.257Z,10.76
2018-12-05T01:06:16.323Z,10.68
2018-12-05T01:08:42.364Z,10.77
2018-12-05T01:11:08.416Z,10.68
2018-12-05T01:13:34.436Z,10.70
2018-12-05T01:16:00.470Z,10.68
2018-12-05T01:18:26.493Z,10.71
2018-12-05T01:23:24.389Z,10.53
2018-12-05T01:25:50.436Z,10.63
2018-12-05T01:28:16.457Z,10.71
2018-12-05T01:30:42.500Z,10.69
2018-12-05T01:33:08.535Z,10.70
2018-12-05T01:35:34.555Z,10.68
2018-12-05T01:38:00.578Z,10.48
2018-12-05T01:40:26.672Z,10.50
2018-12-05T01:42:52.743Z,10.54
2018-12-05T01:45:18.800Z,10.55
2018-12-05T01:47:44.866Z,10.72
2018-12-05T01:50:10.951Z,10.64
2018-12-05T01:52:37.012Z,10.68
2018-12-05T01:55:03.206Z,10.54
2018-12-05T01:57:29.316Z,10.58
2018-12-05T01:59:55.415Z,10.54
2018-12-05T02:02:21.454Z,10.47
2018-12-05T02:04:47.608Z,10.43
2018-12-05T02:07:13.744Z,10.40
2018-12-05T02:09:39.808Z,10.40
2018-12-05T02:12:05.863Z,10.35
2018-12-05T02:14:31.938Z,10.34
2018-12-05T02:16:57.989Z,10.31
2018-12-05T02:19:24.042Z,10.37
2018-12-05T02:21:50.087Z,10.42
2018-12-05T02:24:16.140Z,10.39
2018-12-05T02:26:42.217Z,10.36
2018-12-05T02:29:08.297Z,10.42
2018-12-05T02:31:35.146Z,10.27
2018-12-05T02:34:01.288Z,10.29
2018-12-05T02:36:27.393Z,10.26
2018-12-05T02:38:53.461Z,10.41
2018-12-05T02:41:19.522Z,10.36
2018-12-05T02:43:45.600Z,10.38
2018-12-05T02:46:11.816Z,10.46
2018-12-05T02:48:37.938Z,10.42
2018-12-05T02:51:04.076Z,10.42
2018-12-05T02:53:30.229Z,10.36
2018-12-05T02:55:56.470Z,10.30
2018-12-05T02:58:22.585Z,10.33
2018-12-05T03:00:48.691Z,10.42
2018-12-05T03:03:14.820Z,10.32
2018-12-05T03:05:41.011Z,10.30
2018-12-05T03:08:07.098Z,10.28
2018-12-05T03:10:33.283Z,10.27
2018-12-05T03:13:00.281Z,10.31
2018-12-05T03:15:26.408Z,10.08
2018-12-05T03:17:52.534Z,10.08
2018-12-05T03:20:18.643Z,10.06
2018-12-05T03:22:44.723Z,10.04
2018-12-05T03:25:10.820Z,10.08
2018-12-05T03:27:36.857Z,10.07
2018-12-05T03:30:02.943Z,10.03
2018-12-05T03:32:29.099Z,9.90
2018-12-05T03:34:55.226Z,9.97
2018-12-05T03:37:21.375Z,9.95
2018-12-05T03:39:47.477Z,10.04
2018-12-05T03:42:14.295Z,10.14
2018-12-05T03:44:40.367Z,10.10
2018-12-05T03:47:06.530Z,10.15
2018-12-05T03:49:33.187Z,10.14
2018-12-05T03:51:59.294Z,10.05
2018-12-05T03:54:27.387Z,10.15
2018-12-05T03:56:53.457Z,10.17
2018-12-05T03:59:19.562Z,9.99
2018-12-05T04:01:45.670Z,9.95
2018-12-05T04:04:11.696Z,9.87
2018-12-05T04:06:37.787Z,9.89
2018-12-05T04:09:03.840Z,9.85
2018-12-05T04:11:29.868Z,9.82
2018-12-05T04:13:55.897Z,9.84
2018-12-05T04:16:22.021Z,9.73
2018-12-05T04:18:48.058Z,9.79
2018-12-05T04:21:14.110Z,9.88
2018-12-05T04:23:40.217Z,10.02
2018-12-05T04:26:06.308Z,10.05
2018-12-05T04:28:32.371Z,9.98
2018-12-05T04:30:58.534Z,10.00
2018-12-05T04:35:56.374Z,9.83
2018-12-05T04:38:22.540Z,9.69
2018-12-05T04:40:48.595Z,9.65
2018-12-05T04:43:14.649Z,9.46
2018-12-05T04:45:42.613Z,9.43
2018-12-05T04:48:08.794Z,9.10
2018-12-05T04:50:34.842Z,9.00
2018-12-05T04:55:37.004Z,8.95
2018-12-05T04:58:03.010Z,8.93
2018-12-05T05:00:29.124Z,9.02
2018-12-05T05:02:55.114Z,8.85
2018-12-05T05:05:21.148Z,8.43
2018-12-05T05:15:22.174Z,8.17
2018-12-05T05:17:48.468Z,8.15
2018-12-05T05:20:14.466Z,8.34
2018-12-05T05:22:42.005Z,8.54
2018-12-05T05:25:08.013Z,8.35
2018-12-05T05:27:34.041Z,8.65
2018-12-05T05:30:00.732Z,8.48
2018-12-05T05:32:26.923Z,8.32
2018-12-05T05:34:52.925Z,8.69
2018-12-05T05:37:18.999Z,8.39
2018-12-05T05:39:45.096Z,8.23
2018-12-05T05:42:11.113Z,7.99
2018-12-05T05:44:37.165Z,8.02
2018-12-05T05:47:03.187Z,7.96
2018-12-05T05:49:29.197Z,7.86
2018-12-05T05:51:55.292Z,7.89
2018-12-05T05:54:21.312Z,7.97
2018-12-05T05:56:47.334Z,8.02
2018-12-05T05:59:13.314Z,7.83
2018-12-05T06:01:39.356Z,7.69
2018-12-05T06:04:05.358Z,7.95
2018-12-05T06:06:31.367Z,8.10
2018-12-05T06:08:57.384Z,8.22
2018-12-05T06:11:23.473Z,8.05
2018-12-05T06:13:49.507Z,8.20
2018-12-05T06:16:15.506Z,7.66
2018-12-05T06:18:41.477Z,7.77
2018-12-05T06:21:07.450Z,7.81
2018-12-05T06:23:33.518Z,8.20
2018-12-05T06:25:59.493Z,8.50
2018-12-05T06:28:25.446Z,8.51
2018-12-05T06:30:51.470Z,8.35
2018-12-05T06:33:17.478Z,8.04
2018-12-05T06:35:43.511Z,7.96
2018-12-05T06:38:09.489Z,7.86
2018-12-05T06:40:35.523Z,7.85
2018-12-05T06:43:01.526Z,7.64
2018-12-05T06:45:27.525Z,7.77
2018-12-05T06:47:53.497Z,8.02
2018-12-05T06:50:19.492Z,7.80
2018-12-05T06:52:45.489Z,7.75
2018-12-05T06:55:11.480Z,7.58
2018-12-05T06:57:37.474Z,7.84
2018-12-05T07:00:03.475Z,8.16
2018-12-05T07:02:29.498Z,8.21
2018-12-05T07:04:58.513Z,8.12
2018-12-05T07:07:24.510Z,8.02
2018-12-05T07:09:50.457Z,7.88
2018-12-05T07:12:16.436Z,7.73
2018-12-05T07:14:42.424Z,7.63
2018-12-05T07:17:08.424Z,7.45
2018-12-05T07:19:34.420Z,7.49
2018-12-05T07:22:00.402Z,7.76
2018-12-05T07:24:26.370Z,7.68
2018-12-05T07:26:52.364Z,7.53
2018-12-05T07:29:18.364Z,7.17
2018-12-05T07:31:44.357Z,7.06
2018-12-05T07:34:10.363Z,7.13
2018-12-05T07:36:36.413Z,7.63
2018-12-05T07:39:02.435Z,8.00
2018-12-05T07:41:28.437Z,8.15
2018-12-05T07:43:54.457Z,8.01
2018-12-05T07:46:20.497Z,7.94
2018-12-05T07:48:46.553Z,7.55
2018-12-05T07:51:12.553Z,7.85
2018-12-05T07:53:38.563Z,7.68
2018-12-05T07:56:04.592Z,7.92
2018-12-05T07:58:30.629Z,8.04
2018-12-05T08:00:56.609Z,7.84
2018-12-05T08:03:22.606Z,8.17
2018-12-05T08:05:48.588Z,8.60
2018-12-05T08:08:14.621Z,8.75
2018-12-05T08:10:40.666Z,8.48
2018-12-05T08:13:06.675Z,8.22
2018-12-05T08:15:32.674Z,8.23
2018-12-05T08:17:59.869Z,8.12
2018-12-05T08:20:25.884Z,8.29
2018-12-05T08:22:51.861Z,8.64
2018-12-05T08:25:17.942Z,8.55
2018-12-05T08:27:43.937Z,8.86
2018-12-05T08:30:09.949Z,8.98
2018-12-05T08:32:35.961Z,8.95
2018-12-05T08:35:01.975Z,8.80
2018-12-05T08:37:28.008Z,8.97
2018-12-05T08:39:54.007Z,8.99
2018-12-05T08:42:20.036Z,8.71
2018-12-05T08:44:46.055Z,9.13
2018-12-05T08:47:12.234Z,9.22
2018-12-05T08:49:38.238Z,9.29
2018-12-05T09:19:53.440Z,9.88
2018-12-05T09:22:20.390Z,9.96
2018-12-05T09:24:46.437Z,10.13
2018-12-05T09:27:12.472Z,9.80
2018-12-05T09:29:38.452Z,10.25
2018-12-05T09:32:04.423Z,10.62
2018-12-05T09:34:30.420Z,10.35
2018-12-05T09:36:56.418Z,10.11
2018-12-05T09:39:22.511Z,10.14
2018-12-05T09:41:48.595Z,10.13
2018-12-05T09:44:15.357Z,10.14
2018-12-05T09:46:42.811Z,9.87
2018-12-05T09:49:09.060Z,10.13
2018-12-05T09:51:35.912Z,10.65
2018-12-05T09:54:02.801Z,10.30
2018-12-05T09:56:28.767Z,10.35
2018-12-05T09:58:54.742Z,10.22
2018-12-05T10:01:20.717Z,10.63
2018-12-05T10:03:46.699Z,10.35
2018-12-05T10:06:12.689Z,10.66
2018-12-05T10:08:38.756Z,11.10
2018-12-05T10:11:04.713Z,10.94
2018-12-05T10:13:30.685Z,10.21
2018-12-05T10:15:57.512Z,9.90
2018-12-05T10:18:23.495Z,10.57
2018-12-05T10:20:55.830Z,10.96
2018-12-05T10:23:17.635Z,10.81
2018-12-05T10:25:43.737Z,10.76
2018-12-05T10:28:09.763Z,10.57
2018-12-05T10:30:35.819Z,10.52
2018-12-05T10:33:01.822Z,10.38
2018-12-05T10:35:27.795Z,10.66
2018-12-05T10:37:54.492Z,10.44
2018-12-05T10:40:20.791Z,10.32
2018-12-05T10:42:46.808Z,10.56
2018-12-05T10:45:12.788Z,10.76
2018-12-05T10:47:39.712Z,10.82
2018-12-05T10:50:05.746Z,10.63
2018-12-05T10:52:31.709Z,10.53
2018-12-05T10:54:57.728Z,10.82
2018-12-05T10:57:23.773Z,10.90
2018-12-05T10:59:49.864Z,11.02
2018-12-05T11:02:15.872Z,10.58
2018-12-05T11:04:41.928Z,9.96
2018-12-05T11:07:07.977Z,10.57
2018-12-05T11:09:33.979Z,11.21
2018-12-05T11:11:59.998Z,10.78
2018-12-05T11:14:26.069Z,10.76
2018-12-05T11:16:52.037Z,11.32
2018-12-05T11:19:18.029Z,11.41
2018-12-05T11:21:49.676Z,11.10
2018-12-05T11:24:12.058Z,11.34
2018-12-05T11:26:38.082Z,11.40
2018-12-05T11:29:04.134Z,11.32
2018-12-05T11:31:30.127Z,11.35
2018-12-05T11:33:56.120Z,11.13
2018-12-05T11:36:22.117Z,11.09
2018-12-05T11:38:48.116Z,11.17
2018-12-05T11:41:14.149Z,11.46
2018-12-05T11:43:40.185Z,11.57
2018-12-05T11:46:06.193Z,11.56
2018-12-05T11:48:32.182Z,11.52
2018-12-05T11:50:58.214Z,11.94
2018-12-05T11:53:24.256Z,12.56
2018-12-05T11:55:50.365Z,12.49
2018-12-05T11:58:17.500Z,11.97
2018-12-05T12:00:43.537Z,12.13
2018-12-05T12:03:09.581Z,12.14
2018-12-05T12:05:35.630Z,12.07
2018-12-05T12:08:01.678Z,11.86
2018-12-05T12:10:27.732Z,11.63
2018-12-05T12:12:53.815Z,11.39
2018-12-05T12:15:19.923Z,12.18
2018-12-05T12:17:46.005Z,11.82
2018-12-05T12:20:13.915Z,11.64
2018-12-05T12:22:40.007Z,11.48
2018-12-05T12:25:06.141Z,12.01
2018-12-05T12:27:32.186Z,12.35
2018-12-05T12:29:58.229Z,11.84
2018-12-05T12:32:24.235Z,10.96
2018-12-05T12:34:50.316Z,11.20
2018-12-05T12:37:16.342Z,10.84
2018-12-05T12:39:42.404Z,10.98
2018-12-05T12:42:08.462Z,11.76
2018-12-05T12:44:34.595Z,12.18
2018-12-05T12:47:00.705Z,11.49
2018-12-05T12:49:26.942Z,12.01
2018-12-05T12:51:53.064Z,11.48
2018-12-05T12:54:19.159Z,10.87
2018-12-05T12:56:45.225Z,11.47
2018-12-05T12:59:11.273Z,11.86
2018-12-05T13:01:37.313Z,11.53
2018-12-05T13:04:05.844Z,11.86
2018-12-05T13:06:31.885Z,11.70
2018-12-05T13:08:59.180Z,11.52
2018-12-05T13:11:25.326Z,11.81
2018-12-05T13:13:52.252Z,12.45
2018-12-05T13:16:19.562Z,12.58
2018-12-05T13:18:45.662Z,12.51
2018-12-05T13:21:11.718Z,12.57
2018-12-05T13:23:37.824Z,11.58
2018-12-05T13:26:03.916Z,12.25
2018-12-05T13:28:30.030Z,12.23
2018-12-05T13:30:56.281Z,12.73
2018-12-05T13:33:22.344Z,12.81
2018-12-05T13:35:48.371Z,12.00
2018-12-05T13:38:14.551Z,11.48
2018-12-05T13:45:49.700Z,12.22
2018-12-05T13:48:20.222Z,12.20
2018-12-05T13:55:50.368Z,12.36
2018-12-05T14:08:23.617Z,12.01
2018-12-05T14:13:26.339Z,12.46
2018-12-05T14:23:28.526Z,11.98
2018-12-05T14:25:58.033Z,12.59
2018-12-05T14:33:29.573Z,11.75
2018-12-05T14:41:02.144Z,11.79
2018-12-05T14:43:28.224Z,11.86
2018-12-05T14:45:59.897Z,12.14
2018-12-05T14:53:29.989Z,12.06
2018-12-05T14:58:28.516Z,11.73
2018-12-05T15:00:57.608Z,11.38
2018-12-05T15:03:24.604Z,11.00
2018-12-05T15:10:54.162Z,10.75
2018-12-05T15:13:22.284Z,10.57
2018-12-05T15:15:49.420Z,10.58
2018-12-05T15:18:15.662Z,10.59
2018-12-05T15:20:42.754Z,10.51
2018-12-05T15:23:09.825Z,10.33
2018-12-05T15:25:37.137Z,10.23
2018-12-05T15:28:07.416Z,10.40
2018-12-05T15:30:34.432Z,10.28
2018-12-05T15:33:01.744Z,10.14
2018-12-05T15:35:28.876Z,9.73
2018-12-05T15:37:58.844Z,9.37
2018-12-05T15:40:29.277Z,9.56
2018-12-05T15:42:56.536Z,9.35
2018-12-05T15:45:22.668Z,9.48
2018-12-05T15:50:25.571Z,9.45
2018-12-05T15:52:52.691Z,9.42
2018-12-05T15:57:53.682Z,9.30
2018-12-05T16:00:19.675Z,9.04
2018-12-05T16:02:46.767Z,9.17
2018-12-05T16:05:13.999Z,9.53
2018-12-05T16:07:45.841Z,9.44
2018-12-05T16:12:44.574Z,9.07
2018-12-05T16:15:16.698Z,9.20
2018-12-05T16:17:44.980Z,8.82
2018-12-05T16:22:44.162Z,8.75
2018-12-05T16:25:10.268Z,9.17
2018-12-05T16:27:36.347Z,9.44
2018-12-05T16:30:02.395Z,9.63
2018-12-05T16:32:28.651Z,9.96
2018-12-05T16:34:54.684Z,10.10
2018-12-05T16:37:20.723Z,11.05
2018-12-05T16:39:46.831Z,10.96
2018-12-05T16:42:12.885Z,10.79
2018-12-05T16:44:39.749Z,10.62
2018-12-05T16:47:06.431Z,10.55
2018-12-05T16:49:32.424Z,10.46
2018-12-05T16:51:58.439Z,10.25
2018-12-05T16:54:26.541Z,10.16
2018-12-05T16:56:52.515Z,9.87
2018-12-05T16:59:21.684Z,9.84
2018-12-05T17:01:47.803Z,9.77
2018-12-05T17:04:14.814Z,9.86
2018-12-05T17:06:40.805Z,9.80
2018-12-05T17:09:06.787Z,9.93
2018-12-05T17:11:33.030Z,10.29
2018-12-05T17:13:59.676Z,9.78
2018-12-05T17:16:26.576Z,10.11
2018-12-05T17:18:52.575Z,10.16
2018-12-05T17:21:18.612Z,9.78
2018-12-05T17:26:16.079Z,9.02
2018-12-05T17:28:42.112Z,8.98
2018-12-05T17:31:13.875Z,8.96
2018-12-05T17:33:39.930Z,8.61
2018-12-05T17:36:06.096Z,8.78
2018-12-05T17:38:32.333Z,8.89
2018-12-05T17:40:58.354Z,8.96
2018-12-05T17:43:24.325Z,8.73
2018-12-05T17:45:50.370Z,9.10
2018-12-05T17:48:16.427Z,8.95
2018-12-05T17:50:42.384Z,8.90
2018-12-05T17:53:08.480Z,8.57
2018-12-05T17:55:36.050Z,8.46
2018-12-05T18:00:36.247Z,8.77
2018-12-05T18:03:02.255Z,9.19
2018-12-05T18:05:33.389Z,9.57
2018-12-05T18:07:59.374Z,9.54
2018-12-05T18:10:25.735Z,9.80
2018-12-05T18:12:51.731Z,8.88
2018-12-05T18:15:17.843Z,9.02
2018-12-05T18:17:43.807Z,9.28
2018-12-05T18:20:09.801Z,9.48
2018-12-05T18:22:35.798Z,9.86
2018-12-05T18:25:02.398Z,9.32
2018-12-05T18:27:28.398Z,9.55
2018-12-05T18:29:54.362Z,9.10
2018-12-05T18:32:20.412Z,9.06
2018-12-05T18:34:49.671Z,8.91
2018-12-05T18:37:15.637Z,8.89
2018-12-05T18:39:41.638Z,9.11
2018-12-05T18:42:07.611Z,9.23
2018-12-05T18:44:33.600Z,9.40
2018-12-05T18:47:00.602Z,8.97
2018-12-05T18:49:26.726Z,9.54
2018-12-05T18:57:09.248Z,9.40
2018-12-05T18:59:29.914Z,9.20
2018-12-05T19:01:56.003Z,8.84
2018-12-05T19:04:22.146Z,8.84
2018-12-05T19:06:48.124Z,9.46
2018-12-05T19:09:14.127Z,9.42
2018-12-05T19:11:40.288Z,9.10
2018-12-05T19:14:06.282Z,8.92
2018-12-05T19:16:32.358Z,8.69
2018-12-05T19:18:58.345Z,8.75
2018-12-05T19:21:24.609Z,8.98
2018-12-05T19:26:22.516Z,8.82
2018-12-05T19:28:48.721Z,8.70
2018-12-05T19:31:19.376Z,8.58
2018-12-05T19:33:42.755Z,8.36
2018-12-05T19:36:10.767Z,8.32
2018-12-05T19:41:09.592Z,8.95
2018-12-05T19:43:35.842Z,9.36
2018-12-05T19:46:01.914Z,8.70
2018-12-05T19:48:27.863Z,8.35
2018-12-05T19:50:54.561Z,8.74
2018-12-05T19:53:22.570Z,8.85
2018-12-05T19:55:48.584Z,9.34
2018-12-05T19:58:14.564Z,8.83
2018-12-05T20:03:12.632Z,8.48
2018-12-05T20:05:38.582Z,8.62
2018-12-05T20:08:04.601Z,8.50
2018-12-05T20:10:30.608Z,8.37
2018-12-05T20:12:56.842Z,8.17
2018-12-05T20:15:22.885Z,7.95
2018-12-05T20:25:23.318Z,8.18
2018-12-05T20:27:49.282Z,7.63
2018-12-05T20:30:16.376Z,7.54
2018-12-05T20:32:42.386Z,7.79
2018-12-05T20:35:08.427Z,8.37
2018-12-05T20:37:34.652Z,8.53
2018-12-05T20:40:00.723Z,7.84
2018-12-05T20:44:58.702Z,8.79
2018-12-05T20:47:24.654Z,8.54
2018-12-05T20:49:50.636Z,8.74
2018-12-05T20:52:16.632Z,8.78
2018-12-05T20:54:42.745Z,8.55
2018-12-05T20:57:08.713Z,8.66
2018-12-05T20:59:34.684Z,8.67
2018-12-05T21:02:00.657Z,8.23
2018-12-05T21:04:26.626Z,7.59
2018-12-05T21:06:59.383Z,7.56
2018-12-05T21:09:25.431Z,7.63
2018-12-05T21:11:51.864Z,7.73
2018-12-05T21:14:17.876Z,7.79
2018-12-05T21:16:44.931Z,7.25
2018-12-05T21:19:10.912Z,7.74
2018-12-05T21:21:36.920Z,7.96
2018-12-05T21:26:34.797Z,7.86
2018-12-05T21:29:00.764Z,8.24
2018-12-05T21:31:26.740Z,7.59
2018-12-05T21:33:52.709Z,7.60
2018-12-05T21:36:18.678Z,7.16
2018-12-05T21:51:26.785Z,7.37
2018-12-05T21:53:52.736Z,7.25
2018-12-05T21:56:18.718Z,7.11
2018-12-05T21:58:44.691Z,8.04
2018-12-05T22:01:10.654Z,8.01
2018-12-05T22:08:41.168Z,6.90
2018-12-05T22:11:07.166Z,6.85
2018-12-05T22:13:33.115Z,7.07
2018-12-05T22:15:59.372Z,6.82
2018-12-05T22:18:25.380Z,6.77
2018-12-05T22:20:51.359Z,6.16
2018-12-05T22:25:49.267Z,6.87
2018-12-05T22:28:15.249Z,7.06
2018-12-05T22:30:41.236Z,6.98
2018-12-05T22:33:07.183Z,7.45
2018-12-05T22:35:33.157Z,7.21
2018-12-05T22:37:59.158Z,7.73
2018-12-05T22:40:25.245Z,7.43
2018-12-05T22:42:51.202Z,7.75
2018-12-05T22:45:17.152Z,7.89
2018-12-05T22:47:43.118Z,7.30
2018-12-05T22:50:09.065Z,7.57
2018-12-05T22:52:35.031Z,7.00
2018-12-05T22:55:00.988Z,6.95
2018-12-05T22:57:26.944Z,6.60
2018-12-05T22:59:52.935Z,6.83
2018-12-05T23:02:18.918Z,7.26
2018-12-05T23:04:44.895Z,7.19
2018-12-05T23:07:10.867Z,6.96
2018-12-05T23:09:36.813Z,6.67
2018-12-05T23:12:02.791Z,6.91
2018-12-05T23:14:28.759Z,7.11
2018-12-05T23:16:54.751Z,7.26
2018-12-05T23:19:20.713Z,7.71
2018-12-05T23:24:19.069Z,8.41
2018-12-05T23:26:45.156Z,8.24
2018-12-05T23:29:11.129Z,8.81
2018-12-05T23:31:37.149Z,9.23
2018-12-05T23:34:03.274Z,8.99
2018-12-05T23:36:29.256Z,8.84
2018-12-05T23:38:55.267Z,9.00
2018-12-05T23:41:21.334Z,8.34
2018-12-05T23:43:47.321Z,9.07
2018-12-05T23:46:13.279Z,8.99
2018-12-05T23:48:39.262Z,9.10
2018-12-05T23:51:05.227Z,8.77
2018-12-05T23:53:31.207Z,8.94
2018-12-05T23:55:57.171Z,8.39
2018-12-05T23:58:23.136Z,8.83
